createdAt,value
2022-09-16T00:07:54.894Z,0.00
2022-09-16T00:13:26.664Z,0.00
2022-09-16T00:18:58.620Z,0.00
2022-09-16T00:24:30.339Z,0.00
2022-09-16T00:30:02.169Z,1.00
2022-09-16T00:35:33.948Z,1.00
2022-09-16T00:41:05.752Z,1.00
2022-09-16T00:46:37.414Z,1.00
2022-09-16T00:52:09.360Z,1.00
2022-09-16T00:57:41.039Z,1.00
2022-09-16T01:03:12.974Z,1.00
2022-09-16T01:08:44.566Z,2.00
2022-09-16T01:14:16.286Z,1.00
2022-09-16T01:25:19.802Z,1.00
2022-09-16T01:30:51.204Z,1.00
2022-09-16T01:36:22.607Z,1.00
2022-09-16T01:41:54.883Z,0.00
2022-09-16T01:47:26.644Z,0.00
2022-09-16T01:52:58.396Z,1.00
2022-09-16T01:58:29.827Z,1.00
2022-09-16T02:04:01.713Z,0.00
2022-09-16T02:09:33.701Z,1.00
2022-09-16T02:15:05.206Z,1.00
2022-09-16T02:20:37.064Z,1.00
2022-09-16T02:26:08.352Z,1.00
2022-09-16T02:31:39.900Z,2.00
2022-09-16T02:37:11.355Z,0.00
2022-09-16T02:42:43.149Z,1.00
2022-09-16T02:48:14.905Z,1.00
2022-09-16T02:53:46.738Z,1.00
2022-09-16T02:59:18.399Z,1.00
2022-09-16T03:04:50.196Z,1.00
2022-09-16T03:10:21.983Z,1.00
2022-09-16T03:15:53.664Z,1.00
2022-09-16T03:21:25.395Z,1.00
2022-09-16T03:26:57.338Z,1.00
2022-09-16T03:32:29.088Z,1.00
2022-09-16T03:38:00.923Z,1.00
2022-09-16T03:43:32.958Z,1.00
2022-09-16T03:49:04.304Z,0.00
2022-09-16T03:54:36.125Z,1.00
2022-09-16T04:00:07.954Z,0.00
2022-09-16T04:08:00.565Z,2.00
2022-09-16T04:21:14.398Z,5.00
2022-09-16T04:37:48.657Z,80.00
2022-09-16T04:43:20.140Z,170.00
2022-09-16T04:48:51.549Z,457.00
2022-09-16T04:54:22.932Z,558.00
2022-09-16T05:05:24.177Z,968.00
2022-09-16T05:10:55.537Z,1362.00
2022-09-16T05:16:26.906Z,1732.00
2022-09-16T05:21:58.436Z,2078.00
2022-09-16T05:27:30.043Z,1951.00
2022-09-16T05:33:01.432Z,2053.00
2022-09-16T05:38:32.865Z,2281.00
2022-09-16T05:44:04.197Z,3242.00
2022-09-16T05:49:35.389Z,8926.00
2022-09-16T06:00:36.044Z,7053.00
2022-09-16T06:06:08.041Z,7278.00
2022-09-16T06:11:39.755Z,11328.00
2022-09-16T06:17:11.432Z,9213.00
2022-09-16T06:22:42.774Z,9037.00
2022-09-16T06:28:14.250Z,11434.00
2022-09-16T06:33:45.945Z,10876.00
2022-09-16T06:39:17.626Z,9496.00
2022-09-16T06:44:49.069Z,10111.00
2022-09-16T06:50:20.332Z,9575.00
2022-09-16T06:55:51.807Z,9060.00
2022-09-16T07:01:23.656Z,11131.00
2022-09-16T07:07:09.253Z,12464.00
2022-09-16T07:12:26.591Z,11290.00
2022-09-16T07:17:58.018Z,10246.00
2022-09-16T07:23:29.587Z,14537.00
2022-09-16T07:29:01.015Z,18108.00
2022-09-16T07:34:32.287Z,19755.00
2022-09-16T07:40:05.606Z,22106.00
2022-09-16T07:45:36.897Z,23146.00
2022-09-16T07:51:08.516Z,22106.00
2022-09-16T07:56:40.014Z,21707.00
2022-09-16T08:02:12.013Z,24416.00
2022-09-16T08:07:44.102Z,23560.00
2022-09-16T08:13:15.328Z,22418.00
2022-09-16T08:18:46.666Z,15554.00
2022-09-16T08:24:18.382Z,23460.00
2022-09-16T08:29:49.778Z,20271.00
2022-09-16T08:35:21.122Z,20751.00
2022-09-16T08:46:21.940Z,20810.00
2022-09-16T08:51:53.338Z,13072.00
2022-09-16T09:02:54.405Z,8243.00
2022-09-16T09:13:57.868Z,10321.00
2022-09-16T09:19:29.246Z,11081.00
2022-09-16T09:25:00.629Z,9611.00
2022-09-16T09:30:32.324Z,7535.00
2022-09-16T09:36:03.681Z,17710.00
2022-09-16T09:47:04.627Z,19478.00
2022-09-16T09:52:36.086Z,22376.00
2022-09-16T09:58:07.944Z,18944.00
2022-09-16T10:03:39.644Z,12846.00
2022-09-16T10:14:40.422Z,14645.00
2022-09-16T10:20:12.246Z,5857.00
2022-09-16T10:25:43.652Z,11739.00
2022-09-16T10:31:15.369Z,13848.00
2022-09-16T10:42:16.355Z,15577.00
2022-09-16T10:47:47.920Z,13440.00
2022-09-16T10:53:19.189Z,9370.00
2022-09-16T11:04:22.438Z,10779.00
2022-09-16T11:09:54.201Z,14336.00
2022-09-16T11:31:58.432Z,6602.00
2022-09-16T11:37:30.306Z,12606.00
2022-09-16T11:43:01.980Z,17010.00
2022-09-16T11:48:33.747Z,23813.00
2022-09-16T11:54:05.504Z,24478.00
2022-09-16T11:59:37.205Z,24194.00
2022-09-16T12:10:38.055Z,23506.00
2022-09-16T12:16:10.593Z,21995.00
2022-09-16T12:21:42.261Z,19181.00
2022-09-16T12:27:13.911Z,15324.00
2022-09-16T12:32:45.585Z,19015.00
2022-09-16T12:38:17.538Z,13268.00
2022-09-16T12:43:49.216Z,11000.00
2022-09-16T12:49:21.002Z,12085.00
2022-09-16T12:55:07.298Z,23087.00
2022-09-16T13:00:23.957Z,24044.00
2022-09-16T13:05:55.438Z,23053.00
2022-09-16T13:16:59.380Z,19148.00
2022-09-16T13:22:31.054Z,22719.00
2022-09-16T13:28:02.636Z,22597.00
2022-09-16T13:33:34.666Z,23454.00
2022-09-16T13:39:06.890Z,21418.00
2022-09-16T13:44:38.865Z,20549.00
2022-09-16T13:55:40.049Z,18884.00
2022-09-16T14:01:13.926Z,13958.00
2022-09-16T14:06:45.675Z,14146.00
2022-09-16T14:12:17.508Z,12967.00
2022-09-16T14:17:51.553Z,12910.00
2022-09-16T14:23:21.239Z,12602.00
2022-09-16T14:28:52.775Z,16896.00
2022-09-16T14:34:24.615Z,17997.00
2022-09-16T14:39:56.465Z,17757.00
2022-09-16T14:45:27.862Z,14659.00
2022-09-16T14:50:59.460Z,13240.00
2022-09-16T14:56:30.972Z,10781.00
2022-09-16T15:02:02.905Z,11991.00
2022-09-16T15:07:34.431Z,11777.00
2022-09-16T15:13:06.372Z,13864.00
2022-09-16T15:18:38.178Z,14150.00
2022-09-16T15:24:09.938Z,13646.00
2022-09-16T15:29:41.537Z,12976.00
2022-09-16T15:35:13.320Z,12153.00
2022-09-16T15:40:45.072Z,9863.00
2022-09-16T15:51:49.504Z,10319.00
2022-09-16T15:57:21.106Z,10317.00
2022-09-16T16:02:52.792Z,12289.00
2022-09-16T16:08:24.467Z,14703.00
2022-09-16T16:13:59.851Z,10883.00
2022-09-16T16:19:27.438Z,8261.00
2022-09-16T16:30:28.597Z,9568.00
2022-09-16T16:36:02.068Z,7117.00
2022-09-16T16:41:33.256Z,5015.00
2022-09-16T16:47:04.718Z,4205.00
2022-09-16T16:52:36.374Z,4024.00
2022-09-16T16:58:08.282Z,3323.00
2022-09-16T17:03:40.044Z,2736.00
2022-09-16T17:09:15.699Z,1823.00
2022-09-16T17:14:43.070Z,1267.00
2022-09-16T17:20:14.830Z,851.00
2022-09-16T17:25:46.498Z,428.00
2022-09-16T17:27:58.420Z,311.00
2022-09-16T17:33:30.133Z,220.00
2022-09-16T17:39:01.684Z,128.00
2022-09-16T17:44:33.034Z,53.00
2022-09-16T17:50:04.394Z,17.00
2022-09-16T17:55:35.769Z,8.00
2022-09-16T18:03:29.374Z,4.00
2022-09-16T18:09:01.007Z,3.00
2022-09-16T18:14:32.605Z,3.00
2022-09-16T18:20:07.082Z,3.00
2022-09-16T18:25:35.523Z,3.00
2022-09-16T18:31:07.016Z,2.00
2022-09-16T18:36:38.601Z,4.00
2022-09-16T18:42:10.333Z,3.00
2022-09-16T18:47:42.043Z,2.00
2022-09-16T18:53:13.598Z,2.00
2022-09-16T18:58:58.252Z,4.00
2022-09-16T19:04:16.260Z,4.00
2022-09-16T19:09:47.670Z,4.00
2022-09-16T19:15:18.849Z,4.00
2022-09-16T19:20:50.559Z,3.00
2022-09-16T19:26:22.139Z,3.00
2022-09-16T19:31:53.386Z,3.00
2022-09-16T19:37:25.264Z,4.00
2022-09-16T19:42:56.539Z,3.00
2022-09-16T19:48:27.843Z,2.00
2022-09-16T19:53:59.393Z,4.00
2022-09-16T19:59:30.997Z,3.00
2022-09-16T20:05:05.092Z,3.00
2022-09-16T20:10:34.807Z,4.00
2022-09-16T20:16:05.946Z,4.00
2022-09-16T20:27:08.686Z,2.00
2022-09-16T20:32:40.014Z,2.00
2022-09-16T20:38:11.417Z,3.00
2022-09-16T20:43:43.048Z,4.00
2022-09-16T20:49:14.232Z,2.00
2022-09-16T20:54:45.712Z,2.00
2022-09-16T21:00:17.678Z,3.00
2022-09-16T21:05:49.364Z,3.00
2022-09-16T21:11:21.028Z,3.00
2022-09-16T21:16:52.640Z,3.00
2022-09-16T21:22:24.410Z,3.00
2022-09-16T21:27:56.171Z,3.00
2022-09-16T21:33:28.061Z,3.00
2022-09-16T21:38:59.709Z,3.00
2022-09-16T21:44:30.918Z,3.00
2022-09-16T21:50:02.241Z,3.00
2022-09-16T21:55:33.520Z,3.00
2022-09-16T22:01:05.122Z,3.00
2022-09-16T22:06:37.022Z,2.00
2022-09-16T22:12:08.681Z,2.00
2022-09-16T22:17:40.394Z,3.00
2022-09-16T22:23:12.413Z,2.00
2022-09-16T22:28:43.959Z,2.00
2022-09-16T22:34:15.445Z,3.00
2022-09-16T22:39:47.097Z,2.00
2022-09-16T22:45:18.632Z,3.00
2022-09-16T22:50:50.120Z,2.00
2022-09-16T22:56:21.700Z,3.00
2022-09-16T23:01:53.216Z,3.00
2022-09-16T23:07:24.519Z,2.00
2022-09-16T23:12:55.715Z,2.00
2022-09-16T23:18:27.082Z,3.00
2022-09-16T23:23:58.224Z,2.00
2022-09-16T23:29:29.857Z,3.00
2022-09-16T23:35:01.737Z,2.00
2022-09-16T23:40:33.707Z,3.00
2022-09-16T23:46:05.195Z,2.00
2022-09-16T23:51:36.820Z,3.00
